Time;durP1;ratioP1;P1;durP2;ratioP2;P2;SDS_P1;SDS_P2;PMS_P1;PMS_P2;Temp;Humidity;BMP_temperature;BMP_pressure;BME280_temperature;BME280_humidity;BME280_pressure;Samples;Min_cycle;Max_cycle;Signal;HPM_P1;HPM_P2
2021/10/14 00:00:09;;;;;;;2.60;1.90;;;;;;;10.79;100.00;101471.06;4996639;28;20764;-70
2021/10/14 00:02:35;;;;;;;2.57;2.20;;;;;;;10.89;100.00;101473.06;5013071;28;20243;-71
2021/10/14 00:05:00;;;;;;;2.40;2.03;;;;;;;10.84;100.00;101473.00;4997276;28;20188;-70
2021/10/14 00:07:26;;;;;;;2.47;2.27;;;;;;;10.88;100.00;101469.53;4980670;28;20223;-70
2021/10/14 00:09:51;;;;;;;2.70;2.50;;;;;;;10.90;100.00;101477.44;4996804;28;20682;-71
2021/10/14 00:12:17;;;;;;;2.70;2.50;;;;;;;10.87;100.00;101467.06;5012863;28;20217;-71
2021/10/14 00:14:42;;;;;;;3.40;2.70;;;;;;;11.02;100.00;101475.41;4977351;28;20585;-71
2021/10/14 00:17:08;;;;;;;3.70;3.33;;;;;;;11.00;100.00;101464.78;5010272;28;20319;-71
2021/10/14 00:19:36;;;;;;;3.77;3.47;;;;;;;10.88;100.00;101471.44;5013114;28;20201;-71
2021/10/14 00:22:05;;;;;;;3.20;2.90;;;;;;;10.89;100.00;101478.50;4996861;28;20253;-73
2021/10/14 00:24:30;;;;;;;3.97;3.50;;;;;;;11.00;100.00;101472.13;4996957;28;20181;-71
2021/10/14 00:27:01;;;;;;;6.47;3.97;;;;;;;10.94;100.00;101468.53;4989962;28;20260;-71
2021/10/14 00:29:31;;;;;;;5.00;4.00;;;;;;;11.00;100.00;101463.97;4962218;28;20735;-70
2021/10/14 00:31:59;;;;;;;5.03;4.53;;;;;;;11.01;100.00;101461.00;4991213;28;20217;-71
2021/10/14 00:34:25;;;;;;;5.00;4.30;;;;;;;11.02;100.00;101456.38;4996833;28;20234;-69
2021/10/14 00:36:50;;;;;;;6.30;4.60;;;;;;;10.98;100.00;101457.97;4976523;28;20725;-70
2021/10/14 00:39:18;;;;;;;5.57;4.53;;;;;;;10.99;100.00;101455.00;4975915;28;20189;-69
2021/10/14 00:41:44;;;;;;;5.67;4.67;;;;;;;10.97;100.00;101456.31;5003319;28;20714;-70
2021/10/14 00:44:12;;;;;;;6.53;5.03;;;;;;;11.08;100.00;101447.19;5013030;28;20670;-71
2021/10/14 00:46:48;;;;;;;6.07;5.37;;;;;;;11.04;100.00;101446.06;4980116;28;20221;-72
2021/10/14 00:49:14;;;;;;;6.63;5.53;;;;;;;11.01;100.00;101452.03;4996250;28;20654;-72
2021/10/14 00:51:39;;;;;;;7.53;5.40;;;;;;;11.09;100.00;101449.66;4995875;28;20228;-70
2021/10/14 00:54:09;;;;;;;5.60;5.10;;;;;;;10.73;100.00;101446.78;4979836;28;20189;-73
2021/10/14 00:56:35;;;;;;;7.43;5.80;;;;;;;10.91;100.00;101446.47;4992818;28;20277;-73
2021/10/14 00:59:01;;;;;;;6.60;6.00;;;;;;;11.05;100.00;101436.84;4960427;28;20186;-72
2021/10/14 01:01:29;;;;;;;8.77;6.10;;;;;;;11.01;100.00;101444.69;4960160;28;20722;-71
2021/10/14 01:03:57;;;;;;;8.33;6.03;;;;;;;10.96;100.00;101433.75;4977052;28;20189;-71
2021/10/14 01:06:25;;;;;;;7.57;6.40;;;;;;;11.06;100.00;101433.88;4997041;28;20216;-73
2021/10/14 01:08:51;;;;;;;7.90;6.40;;;;;;;11.15;100.00;101438.59;4995623;28;20188;-72
2021/10/14 01:11:16;;;;;;;7.83;6.50;;;;;;;11.05;100.00;101434.13;4995041;28;20703;-72
2021/10/14 01:13:44;;;;;;;7.33;6.63;;;;;;;11.03;100.00;101430.84;4976677;28;20193;-70
2021/10/14 01:16:14;;;;;;;7.83;6.63;;;;;;;11.09;100.00;101424.38;4993986;28;20312;-71
2021/10/14 01:18:40;;;;;;;9.17;6.90;;;;;;;11.26;100.00;101429.44;5012234;28;20182;-70
2021/10/14 01:21:08;;;;;;;8.90;7.40;;;;;;;11.18;100.00;101429.91;4995484;28;20228;-73
2021/10/14 01:23:33;;;;;;;8.80;6.90;;;;;;;11.10;100.00;101434.16;5012391;28;20169;-72
2021/10/14 01:25:59;;;;;;;8.00;7.17;;;;;;;11.13;100.00;101429.88;4995334;28;20254;-70
2021/10/14 01:28:24;;;;;;;9.23;7.53;;;;;;;11.15;100.00;101430.44;4995255;28;20193;-72
2021/10/14 01:30:50;;;;;;;8.83;7.93;;;;;;;11.27;100.00;101433.78;4995182;28;20537;-72
2021/10/14 01:33:18;;;;;;;10.47;8.03;;;;;;;11.23;100.00;101429.97;4976264;28;20192;-72
2021/10/14 01:35:46;;;;;;;9.07;7.87;;;;;;;11.16;100.00;101429.34;4959809;28;20320;-72
2021/10/14 01:38:14;;;;;;;9.33;8.07;;;;;;;11.29;100.00;101431.63;4976406;28;20599;-72
2021/10/14 01:40:40;;;;;;;10.73;8.07;;;;;;;11.25;100.00;101426.97;4992818;28;20239;-72
2021/10/14 01:43:11;;;;;;;8.57;7.73;;;;;;;11.30;100.00;101430.56;4995474;28;20180;-72
2021/10/14 01:45:37;;;;;;;10.30;8.27;;;;;;;11.33;100.00;101418.34;5011188;28;20690;-69
2021/10/14 01:48:02;;;;;;;10.53;7.97;;;;;;;11.33;100.00;101419.16;5011805;28;20196;-69
2021/10/14 01:50:28;;;;;;;9.80;8.30;;;;;;;11.45;100.00;101425.31;4978114;28;20231;-69
2021/10/14 01:52:53;;;;;;;10.13;8.50;;;;;;;11.44;100.00;101426.38;4995432;28;20181;-72
2021/10/14 01:55:21;;;;;;;9.80;8.63;;;;;;;11.39;100.00;101415.44;4994940;28;20638;-72
2021/10/14 01:57:47;;;;;;;10.07;8.23;;;;;;;11.50;100.00;101419.91;4995554;28;20300;-70
2021/10/14 02:00:13;;;;;;;9.47;8.40;;;;;;;11.44;100.00;101417.34;4993941;28;20292;-71
2021/10/14 02:02:39;;;;;;;12.73;9.10;;;;;;;11.34;100.00;101412.66;4995020;28;20193;-70
2021/10/14 02:05:07;;;;;;;13.00;9.27;;;;;;;11.37;100.00;101420.31;5010861;28;20188;-72
2021/10/14 02:07:33;;;;;;;13.17;9.43;;;;;;;11.35;100.00;101422.44;4995231;28;20173;-71
2021/10/14 02:09:59;;;;;;;11.50;9.60;;;;;;;11.26;100.00;101420.44;4994621;28;20224;-72
2021/10/14 02:12:26;;;;;;;11.10;9.70;;;;;;;11.33;100.00;101427.31;4994214;28;20652;-73
2021/10/14 02:14:52;;;;;;;17.93;9.93;;;;;;;11.38;100.00;101413.78;4995171;28;20204;-69
2021/10/14 02:17:20;;;;;;;13.23;9.83;;;;;;;11.48;100.00;101416.59;4994480;28;20309;-72
2021/10/14 02:19:50;;;;;;;13.03;10.00;;;;;;;11.49;100.00;101415.53;4961763;28;20236;-72
2021/10/14 02:22:16;;;;;;;14.50;10.43;;;;;;;11.41;100.00;101426.03;4995254;28;20224;-71
2021/10/14 02:24:44;;;;;;;16.13;10.07;;;;;;;11.52;100.00;101414.19;4994710;28;20677;-72
2021/10/14 02:27:09;;;;;;;13.90;10.03;;;;;;;11.49;100.00;101417.44;4994263;28;20217;-72
2021/10/14 02:29:37;;;;;;;12.27;10.00;;;;;;;11.55;100.00;101414.50;4975176;28;20209;-72
2021/10/14 02:32:03;;;;;;;12.30;9.80;;;;;;;11.55;100.00;101417.22;4990636;28;20236;-70
2021/10/14 02:34:28;;;;;;;12.80;9.93;;;;;;;11.57;100.00;101415.88;4992516;28;20189;-71
2021/10/14 02:36:54;;;;;;;12.40;9.47;;;;;;;11.62;100.00;101421.34;5010054;28;20220;-73
2021/10/14 02:39:21;;;;;;;11.03;9.13;;;;;;;11.45;100.00;101424.50;4974672;28;20867;-72
2021/10/14 02:41:47;;;;;;;12.73;9.03;;;;;;;11.61;100.00;101429.75;5002047;28;20277;-70
2021/10/14 02:44:13;;;;;;;9.63;8.50;;;;;;;11.67;100.00;101426.03;5010730;28;20673;-72
2021/10/14 02:46:38;;;;;;;10.80;8.40;;;;;;;11.69;100.00;101424.69;4993603;28;20714;-71
2021/10/14 02:49:06;;;;;;;9.77;7.17;;;;;;;11.61;100.00;101424.31;4994097;28;20823;-72
2021/10/14 02:51:31;;;;;;;9.40;7.70;;;;;;;11.69;100.00;101413.78;4994138;28;20312;-72
2021/10/14 02:53:57;;;;;;;8.37;7.17;;;;;;;11.58;100.00;101413.97;4993962;28;20191;-71
2021/10/14 02:56:22;;;;;;;8.57;7.67;;;;;;;11.71;100.00;101416.25;4961375;28;20602;-71
2021/10/14 02:58:52;;;;;;;8.43;7.60;;;;;;;11.63;100.00;101414.03;4974638;28;20561;-72
2021/10/14 03:01:18;;;;;;;10.27;7.67;;;;;;;11.67;100.00;101398.81;4973984;28;20241;-72
2021/10/14 03:03:45;;;;;;;9.33;7.90;;;;;;;11.63;100.00;101403.16;4990711;28;20321;-72
2021/10/14 03:06:11;;;;;;;9.93;7.83;;;;;;;11.66;100.00;101408.84;4990397;28;20217;-72
2021/10/14 03:08:39;;;;;;;11.73;7.53;;;;;;;11.73;100.00;101397.75;4993446;28;20661;-71
2021/10/14 03:11:04;;;;;;;8.63;7.50;;;;;;;11.70;100.00;101398.28;5009233;28;20236;-71
2021/10/14 03:13:30;;;;;;;9.67;7.17;;;;;;;11.65;100.00;101398.25;4993411;28;20185;-70
2021/10/14 03:15:58;;;;;;;8.33;7.40;;;;;;;11.76;100.00;101394.53;5009619;28;20225;-73
2021/10/14 03:18:26;;;;;;;10.57;8.13;;;;;;;11.62;100.00;101402.31;4993905;28;20617;-70
2021/10/14 03:20:52;;;;;;;9.93;7.67;;;;;;;11.66;100.00;101405.31;4993504;28;20237;-72
2021/10/14 03:23:17;;;;;;;10.93;8.33;;;;;;;11.76;100.00;101402.69;4977777;28;20192;-72
2021/10/14 03:25:45;;;;;;;8.90;7.43;;;;;;;11.71;100.00;101400.75;4993378;28;20231;-72
2021/10/14 03:28:13;;;;;;;10.80;8.50;;;;;;;11.53;100.00;101408.50;5009673;28;20280;-73
2021/10/14 03:30:38;;;;;;;12.63;9.57;;;;;;;11.62;100.00;101401.50;4992901;28;20706;-72
2021/10/14 03:33:08;;;;;;;13.87;9.67;;;;;;;11.58;100.00;101408.53;5004011;28;20189;-72
2021/10/14 03:35:34;;;;;;;15.80;10.37;;;;;;;11.68;100.00;101400.44;4993486;28;20299;-71
2021/10/14 03:38:00;;;;;;;19.60;11.93;;;;;;;11.71;100.00;101398.03;4974370;28;20190;-71
2021/10/14 03:40:27;;;;;;;17.13;11.87;;;;;;;11.73;100.00;101400.47;4987230;28;22900;-71
2021/10/14 03:42:52;;;;;;;20.73;13.80;;;;;;;11.79;100.00;101399.44;5010310;28;20199;-71
2021/10/14 03:45:18;;;;;;;24.13;13.90;;;;;;;11.72;100.00;101399.66;4990299;28;20276;-72
2021/10/14 03:47:43;;;;;;;23.83;14.40;;;;;;;11.75;100.00;101395.59;4971202;28;20182;-71
2021/10/14 03:50:09;;;;;;;23.93;15.53;;;;;;;11.86;100.00;101403.56;5008028;28;20738;-71
2021/10/14 03:52:37;;;;;;;24.53;15.13;;;;;;;11.81;100.00;101400.78;4985138;28;20197;-71
2021/10/14 03:55:03;;;;;;;25.23;15.97;;;;;;;11.89;100.00;101392.16;4988033;28;20185;-71
2021/10/14 03:57:28;;;;;;;25.90;15.70;;;;;;;11.91;100.00;101401.69;4977312;28;20588;-72
2021/10/14 03:59:54;;;;;;;27.10;16.27;;;;;;;11.99;100.00;101409.34;4983350;28;20236;-72
2021/10/14 04:02:22;;;;;;;24.70;16.57;;;;;;;11.97;100.00;101400.63;4959253;28;20220;-71
2021/10/14 04:04:47;;;;;;;26.20;16.53;;;;;;;12.04;100.00;101401.22;4987104;28;20213;-72
2021/10/14 04:07:16;;;;;;;27.80;16.77;;;;;;;11.89;100.00;101402.25;4991801;28;20224;-72
2021/10/14 04:09:43;;;;;;;25.67;16.23;;;;;;;11.93;100.00;101399.53;4992869;28;20578;-72
2021/10/14 04:12:09;;;;;;;25.43;17.50;;;;;;;11.96;100.00;101401.75;4991408;28;20220;-71
2021/10/14 04:14:34;;;;;;;28.40;17.30;;;;;;;11.96;100.00;101396.28;4974085;28;20197;-71
2021/10/14 04:17:02;;;;;;;26.83;16.97;;;;;;;11.98;100.00;101396.84;4969589;28;20232;-72
2021/10/14 04:19:28;;;;;;;27.37;17.07;;;;;;;11.98;100.00;101396.84;4977457;28;20574;-72
2021/10/14 04:21:56;;;;;;;26.50;16.57;;;;;;;12.02;100.00;101397.13;4960506;28;20245;-72
2021/10/14 04:24:26;;;;;;;23.53;16.60;;;;;;;12.01;100.00;101399.06;4963926;28;20610;-71
2021/10/14 04:26:54;;;;;;;25.87;15.93;;;;;;;12.12;100.00;101392.56;4996662;28;20236;-73
2021/10/14 04:29:20;;;;;;;25.07;15.67;;;;;;;12.06;100.00;101388.16;5005047;28;20263;-72
2021/10/14 04:31:48;;;;;;;26.90;15.77;;;;;;;12.00;100.00;101391.94;4980591;28;20225;-72
2021/10/14 04:34:14;;;;;;;23.67;15.50;;;;;;;12.05;100.00;101393.88;4997403;28;20185;-72
2021/10/14 04:36:44;;;;;;;24.80;18.03;;;;;;;12.00;100.00;101386.50;4993692;28;20225;-72
2021/10/14 04:39:10;;;;;;;24.03;16.37;;;;;;;12.04;100.00;101392.25;4977656;28;20182;-72
2021/10/14 04:41:35;;;;;;;24.47;15.00;;;;;;;12.14;100.00;101389.56;4991328;28;20225;-72
2021/10/14 04:44:02;;;;;;;26.30;16.07;;;;;;;12.14;100.00;101381.41;5010862;28;20719;-72
2021/10/14 04:46:27;;;;;;;23.10;15.47;;;;;;;12.15;100.00;101385.78;4973637;28;20271;-73
2021/10/14 04:48:53;;;;;;;22.30;14.87;;;;;;;12.10;100.00;101392.00;4992990;28;20193;-74
2021/10/14 04:51:18;;;;;;;22.03;15.00;;;;;;;12.19;100.00;101387.69;4973815;28;20225;-72
2021/10/14 04:53:44;;;;;;;24.73;15.83;;;;;;;12.34;100.00;101390.47;4971255;28;20200;-72
2021/10/14 04:56:09;;;;;;;27.30;15.97;;;;;;;12.31;100.00;101380.13;4992620;28;20287;-72
2021/10/14 04:58:35;;;;;;;27.03;15.73;;;;;;;12.24;100.00;101387.72;4976294;28;20185;-72
2021/10/14 05:01:03;;;;;;;24.40;15.33;;;;;;;12.16;100.00;101385.53;4992444;28;20580;-71
2021/10/14 05:03:31;;;;;;;28.67;15.07;;;;;;;12.32;100.00;101393.50;5003269;28;20216;-72
2021/10/14 05:05:56;;;;;;;24.60;16.57;;;;;;;12.37;100.00;101395.41;4977136;28;20257;-72
2021/10/14 05:08:22;;;;;;;26.47;16.20;;;;;;;12.29;100.00;101395.94;5013366;28;20201;-77
2021/10/14 05:10:52;;;;;;;26.27;16.07;;;;;;;12.20;100.00;101392.06;4981641;28;20236;-76
2021/10/14 05:13:18;;;;;;;27.50;16.40;;;;;;;12.26;100.00;101388.28;4996585;28;20272;-71
2021/10/14 05:15:43;;;;;;;26.00;16.93;;;;;;;12.37;100.00;101381.78;4995901;28;20694;-71
2021/10/14 05:18:09;;;;;;;27.80;16.33;;;;;;;12.41;100.00;101389.16;5011823;28;20232;-72
2021/10/14 05:20:37;;;;;;;30.40;17.13;;;;;;;12.33;100.00;101388.88;4993005;28;20224;-71
2021/10/14 05:23:05;;;;;;;25.53;15.83;;;;;;;12.47;100.00;101400.91;4979417;28;20272;-72
2021/10/14 05:25:30;;;;;;;25.10;16.57;;;;;;;12.46;100.00;101388.38;4995236;28;20686;-72
2021/10/14 05:27:58;;;;;;;25.53;16.47;;;;;;;12.46;100.00;101391.91;5012027;28;20184;-72
2021/10/14 05:30:26;;;;;;;25.13;15.80;;;;;;;12.39;100.00;101393.25;4978762;28;20197;-72
2021/10/14 05:32:52;;;;;;;23.57;16.10;;;;;;;12.45;100.00;101394.91;4995074;28;20185;-72
2021/10/14 05:35:18;;;;;;;27.63;17.20;;;;;;;12.48;100.00;101392.47;4993858;28;20746;-72
2021/10/14 05:37:48;;;;;;;31.37;16.27;;;;;;;12.44;100.00;101390.56;4994594;28;20212;-72
2021/10/14 05:40:13;;;;;;;23.27;16.47;;;;;;;12.35;100.00;101383.97;4994081;28;20686;-72
2021/10/14 05:42:39;;;;;;;22.57;16.00;;;;;;;12.43;100.00;101388.91;4980367;28;20189;-73
2021/10/14 05:45:05;;;;;;;22.97;16.00;;;;;;;12.39;100.00;101382.34;5010413;28;20185;-71
2021/10/14 05:47:30;;;;;;;23.87;15.53;;;;;;;12.37;100.00;101389.97;5011677;28;20181;-73
2021/10/14 05:49:56;;;;;;;20.57;14.73;;;;;;;12.39;100.00;101385.06;5011298;28;20232;-71
2021/10/14 05:52:21;;;;;;;26.03;16.20;;;;;;;12.44;100.00;101377.75;4994793;28;20232;-70
2021/10/14 05:54:50;;;;;;;23.67;16.10;;;;;;;12.50;100.00;101386.75;4995240;28;20173;-72
2021/10/14 05:57:19;;;;;;;24.40;16.33;;;;;;;12.45;100.00;101378.53;4979756;28;20312;-71
2021/10/14 05:59:44;;;;;;;21.07;15.57;;;;;;;12.46;100.00;101377.47;4978956;28;20240;-71
2021/10/14 06:02:12;;;;;;;22.73;16.23;;;;;;;12.38;100.00;101372.50;4994708;28;20221;-74
2021/10/14 06:04:38;;;;;;;23.63;15.97;;;;;;;12.47;100.00;101379.09;5011446;28;20181;-71
2021/10/14 06:07:03;;;;;;;20.53;15.47;;;;;;;12.48;100.00;101378.84;4994536;28;20227;-71
2021/10/14 06:09:32;;;;;;;20.83;15.17;;;;;;;12.54;100.00;101377.75;4994224;28;20251;-71
2021/10/14 06:11:58;;;;;;;20.27;15.43;;;;;;;12.45;100.00;101382.13;5012234;28;20223;-73
2021/10/14 06:14:24;;;;;;;23.27;14.73;;;;;;;12.44;100.00;101382.38;4994753;28;20181;-71
2021/10/14 06:16:49;;;;;;;22.50;14.93;;;;;;;12.57;100.00;101379.16;4994448;28;20224;-71
2021/10/14 06:19:15;;;;;;;20.07;14.80;;;;;;;12.51;100.00;101388.38;4962162;28;20196;-74
2021/10/14 06:21:42;;;;;;;24.30;15.10;;;;;;;12.41;100.00;101391.06;4994454;28;20228;-72
2021/10/14 06:24:07;;;;;;;18.83;14.30;;;;;;;12.49;100.00;101391.38;4978728;28;20258;-72
2021/10/14 06:26:35;;;;;;;20.00;14.40;;;;;;;12.69;100.00;101385.97;4974592;28;20591;-73
2021/10/14 06:29:03;;;;;;;20.13;13.93;;;;;;;12.66;100.00;101383.81;5007229;28;20700;-72
2021/10/14 06:31:28;;;;;;;21.37;14.37;;;;;;;12.67;100.00;101396.34;4961592;28;20295;-70
2021/10/14 06:33:54;;;;;;;22.20;15.13;;;;;;;12.69;100.00;101389.56;4978192;28;20826;-71
2021/10/14 06:36:20;;;;;;;23.83;14.60;;;;;;;12.57;100.00;101390.06;5009895;28;20602;-71
2021/10/14 06:38:46;;;;;;;22.30;15.27;;;;;;;12.68;100.00;101398.81;4994242;28;20184;-72
2021/10/14 06:41:14;;;;;;;20.90;13.70;;;;;;;12.73;100.00;101390.66;4977777;28;20916;-72
2021/10/14 06:43:42;;;;;;;20.87;14.17;;;;;;;12.74;100.00;101395.00;4994214;28;20651;-71
2021/10/14 06:46:10;;;;;;;21.13;14.53;;;;;;;12.72;100.00;101394.44;4994037;28;20221;-71
2021/10/14 06:48:38;;;;;;;20.30;13.83;;;;;;;12.78;100.00;101390.69;4993767;28;20189;-71
2021/10/14 06:51:04;;;;;;;21.93;12.90;;;;;;;12.70;100.00;101391.19;5011517;28;20220;-72
2021/10/14 06:53:32;;;;;;;20.60;13.00;;;;;;;12.70;100.00;101387.63;4974633;28;20651;-72
2021/10/14 06:55:59;;;;;;;16.80;12.60;;;;;;;12.69;100.00;101388.72;4990728;28;20311;-72
2021/10/14 06:58:24;;;;;;;18.73;12.37;;;;;;;12.70;100.00;101383.00;4994673;28;20181;-71
2021/10/14 07:00:50;;;;;;;20.40;12.63;;;;;;;12.70;100.00;101382.19;5011401;28;20225;-72
2021/10/14 07:03:16;;;;;;;16.30;12.60;;;;;;;12.84;100.00;101378.72;4995427;28;20243;-72
2021/10/14 07:05:44;;;;;;;16.93;12.63;;;;;;;12.85;100.00;101380.34;5011614;28;20232;-71
2021/10/14 07:08:09;;;;;;;20.50;12.97;;;;;;;12.93;100.00;101388.00;5011499;28;20208;-72
2021/10/14 07:10:38;;;;;;;17.73;12.67;;;;;;;12.78;100.00;101384.38;4963020;28;20224;-72
2021/10/14 07:13:07;;;;;;;18.67;12.93;;;;;;;12.69;100.00;101384.09;5010552;28;20698;-73
2021/10/14 07:15:32;;;;;;;17.97;13.13;;;;;;;12.86;100.00;101375.72;4995016;28;20228;-72
2021/10/14 07:17:59;;;;;;;19.73;12.93;;;;;;;12.87;100.00;101375.44;4994469;28;20634;-71
2021/10/14 07:20:24;;;;;;;19.77;13.37;;;;;;;12.71;100.00;101375.66;4977298;28;20204;-72
2021/10/14 07:22:50;;;;;;;17.83;13.00;;;;;;;12.78;100.00;101378.94;5011837;28;20189;-73
2021/10/14 07:25:16;;;;;;;21.80;13.30;;;;;;;12.79;100.00;101386.03;4993487;28;20216;-71
2021/10/14 07:27:41;;;;;;;21.23;12.77;;;;;;;12.83;100.00;101378.97;4994296;28;20654;-72
2021/10/14 07:30:08;;;;;;;18.33;12.83;;;;;;;12.76;100.00;101379.22;4960894;28;20592;-72
2021/10/14 07:32:33;;;;;;;19.47;12.73;;;;;;;12.72;100.00;101378.09;4961812;28;20189;-71
2021/10/14 07:34:59;;;;;;;18.27;12.57;;;;;;;12.74;100.00;101384.09;4977871;28;20181;-72
2021/10/14 07:37:25;;;;;;;17.80;12.70;;;;;;;12.78;100.00;101371.59;4993524;28;20236;-72
2021/10/14 07:39:50;;;;;;;18.37;12.87;;;;;;;12.85;100.00;101365.91;5009946;28;20197;-72
2021/10/14 07:42:16;;;;;;;17.10;12.17;;;;;;;12.73;100.00;101379.75;4965740;28;20225;-72
2021/10/14 07:44:44;;;;;;;16.63;12.70;;;;;;;12.82;100.00;101367.25;4977740;28;20181;-71
2021/10/14 07:47:14;;;;;;;17.70;12.20;;;;;;;12.79;100.00;101373.25;5009699;28;20221;-73
2021/10/14 07:49:45;;;;;;;16.10;12.43;;;;;;;12.85;100.00;101380.34;5013697;28;20228;-72
2021/10/14 07:52:12;;;;;;;17.90;12.27;;;;;;;12.89;100.00;101373.28;4981098;28;20236;-71
2021/10/14 07:54:40;;;;;;;18.07;12.37;;;;;;;12.89;100.00;101378.75;4997557;28;20177;-71
2021/10/14 07:57:06;;;;;;;13.87;11.27;;;;;;;12.87;100.00;101375.44;5013131;28;20228;-71
2021/10/14 07:59:31;;;;;;;15.83;11.03;;;;;;;12.87;100.00;101386.34;4977686;28;20193;-73
2021/10/14 08:01:57;;;;;;;17.00;11.57;;;;;;;12.92;100.00;101378.19;4977540;28;20711;-71
2021/10/14 08:04:23;;;;;;;14.20;10.87;;;;;;;13.00;100.00;101380.38;4997002;28;20580;-72
2021/10/14 08:06:48;;;;;;;16.57;10.93;;;;;;;12.84;100.00;101381.44;4996999;28;20228;-72
2021/10/14 08:09:21;;;;;;;13.27;10.30;;;;;;;12.92;100.00;101382.81;4970294;28;20679;-71
2021/10/14 08:11:47;;;;;;;12.30;10.07;;;;;;;13.06;100.00;101381.19;4987526;28;20216;-72
2021/10/14 08:14:17;;;;;;;11.70;9.17;;;;;;;13.10;100.00;101374.94;4996881;28;20204;-71
2021/10/14 08:16:42;;;;;;;11.33;10.13;;;;;;;13.05;100.00;101385.84;4997001;28;20239;-71
2021/10/14 08:19:10;;;;;;;11.97;9.50;;;;;;;13.03;100.00;101385.28;5012917;28;20654;-70
2021/10/14 08:21:36;;;;;;;14.23;10.17;;;;;;;13.29;100.00;101384.22;4980352;28;20228;-71
2021/10/14 08:24:01;;;;;;;10.37;9.20;;;;;;;13.22;100.00;101384.50;4997229;28;20192;-72
2021/10/14 08:26:27;;;;;;;10.60;9.57;;;;;;;13.42;100.00;101389.97;4996651;28;20244;-71
2021/10/14 08:28:55;;;;;;;12.00;10.03;;;;;;;13.41;100.00;101382.06;5013986;28;20196;-72
2021/10/14 08:31:23;;;;;;;11.67;10.47;;;;;;;13.54;100.00;101385.88;4996443;28;20233;-71
2021/10/14 08:33:52;;;;;;;10.87;9.73;;;;;;;13.49;100.00;101385.84;4964765;28;20197;-71
2021/10/14 08:36:18;;;;;;;11.30;10.03;;;;;;;13.61;100.00;101378.22;4992982;28;20231;-71
2021/10/14 08:38:44;;;;;;;10.47;9.33;;;;;;;13.66;100.00;101382.84;5000888;28;20224;-71
2021/10/14 08:41:12;;;;;;;10.43;9.03;;;;;;;13.80;100.00;101376.56;4995966;28;20798;-72
2021/10/14 08:43:39;;;;;;;10.17;8.67;;;;;;;13.74;100.00;101383.13;4996570;28;20268;-73
2021/10/14 08:46:05;;;;;;;11.67;8.87;;;;;;;13.86;100.00;101372.72;4996258;28;20266;-70
2021/10/14 08:48:30;;;;;;;10.13;9.10;;;;;;;13.83;100.00;101367.81;4996246;28;20675;-72
2021/10/14 08:51:10;;;;;;;11.70;8.60;;;;;;;13.77;100.00;101371.63;4997222;28;20604;-74
2021/10/14 08:53:37;;;;;;;10.80;8.37;;;;;;;13.76;100.00;101366.47;4980730;28;20185;-73
2021/10/14 08:56:05;;;;;;;10.70;8.20;;;;;;;13.75;100.00;101373.00;4996143;28;20225;-71
2021/10/14 08:58:30;;;;;;;12.90;8.63;;;;;;;13.81;100.00;101356.38;4979922;28;20181;-71
2021/10/14 09:01:05;;;;;;;10.37;8.37;;;;;;;13.72;100.00;101360.75;4975736;28;20248;-71
2021/10/14 09:03:31;;;;;;;9.63;8.63;;;;;;;13.55;100.00;101362.94;4993117;28;20201;-71
2021/10/14 09:05:56;;;;;;;9.73;8.40;;;;;;;13.56;100.00;101363.75;4990854;28;20224;-73
2021/10/14 09:08:45;;;;;;;9.40;8.37;;;;;;;13.59;100.00;101365.94;5007167;28;20189;-72
2021/10/14 09:11:17;;;;;;;8.90;7.97;;;;;;;13.56;100.00;101361.84;5011678;28;20225;-71
2021/10/14 09:13:50;;;;;;;9.77;8.73;;;;;;;13.67;100.00;101366.19;5012274;28;20189;-72
2021/10/14 09:16:35;;;;;;;11.20;9.40;;;;;;;13.60;100.00;101371.13;4976166;28;20272;-74
2021/10/14 09:19:21;;;;;;;12.47;9.60;;;;;;;13.76;100.00;101369.19;4993117;28;20181;-73
2021/10/14 09:21:57;;;;;;;10.43;9.30;;;;;;;13.54;100.00;101372.22;4979855;28;20225;-70
2021/10/14 09:24:35;;;;;;;14.17;10.03;;;;;;;13.70;100.00;101371.13;4979669;28;20188;-71
2021/10/14 09:27:12;;;;;;;12.07;9.83;;;;;;;13.54;100.00;101368.69;4997097;28;20212;-74
2021/10/14 09:29:38;;;;;;;14.13;10.10;;;;;;;13.68;100.00;101367.00;4979865;28;20200;-73
2021/10/14 09:32:14;;;;;;;13.50;10.60;;;;;;;13.69;100.00;101369.47;4995404;28;20224;-71
2021/10/14 09:34:43;;;;;;;11.27;10.10;;;;;;;13.64;100.00;101377.66;4965633;28;20271;-72
2021/10/14 09:37:15;;;;;;;13.67;10.50;;;;;;;13.65;100.00;101365.66;4995077;28;20233;-71
2021/10/14 09:40:00;;;;;;;12.00;10.70;;;;;;;13.58;100.00;101372.50;5011487;28;20637;-72
2021/10/14 09:43:00;;;;;;;11.97;10.57;;;;;;;13.56;100.00;101370.03;4982358;28;20213;-71
2021/10/14 09:45:30;;;;;;;13.57;10.33;;;;;;;13.50;100.00;101367.59;5001712;28;20224;-72
2021/10/14 09:48:02;;;;;;;13.13;10.40;;;;;;;13.72;100.00;101363.47;4980118;28;20173;-72
2021/10/14 09:50:48;;;;;;;12.40;10.90;;;;;;;13.69;100.00;101363.19;5010194;28;20224;-72
2021/10/14 09:53:23;;;;;;;13.53;11.43;;;;;;;13.94;100.00;101366.72;5013220;28;20184;-72
2021/10/14 09:55:49;;;;;;;14.87;11.50;;;;;;;13.76;100.00;101359.09;4994635;28;20424;-72
2021/10/14 09:58:15;;;;;;;12.97;11.30;;;;;;;13.80;100.00;101359.38;5011545;28;20239;-71
2021/10/14 10:00:40;;;;;;;12.73;11.43;;;;;;;13.77;100.00;101357.97;4964117;28;20276;-71
2021/10/14 10:03:08;;;;;;;13.30;11.77;;;;;;;13.70;100.00;101354.75;4975648;28;20244;-71
2021/10/14 10:05:34;;;;;;;14.37;12.10;;;;;;;13.72;100.00;101355.28;4999624;28;20224;-73
2021/10/14 10:08:04;;;;;;;14.77;12.70;;;;;;;13.69;100.00;101352.28;4995304;28;20638;-72
2021/10/14 10:10:29;;;;;;;15.83;14.17;;;;;;;13.78;100.00;101358.81;4977153;28;20232;-72
2021/10/14 10:12:56;;;;;;;15.53;13.93;;;;;;;13.81;100.00;101344.59;4977472;28;20550;-72
2021/10/14 10:15:49;;;;;;;14.43;12.87;;;;;;;13.81;100.00;101356.38;4994689;28;20246;-73
2021/10/14 10:18:26;;;;;;;16.07;13.40;;;;;;;13.81;100.00;101353.63;4994677;28;20236;-72
2021/10/14 10:20:55;;;;;;;14.70;13.17;;;;;;;13.73;100.00;101348.72;5010383;28;20225;-73
2021/10/14 10:23:42;;;;;;;17.70;13.80;;;;;;;13.84;100.00;101344.88;4995478;28;20662;-72
2021/10/14 10:26:36;;;;;;;17.97;13.43;;;;;;;13.87;100.00;101345.13;5010592;28;20308;-72
2021/10/14 10:29:19;;;;;;;17.10;13.67;;;;;;;13.68;100.00;101343.28;5010921;28;20192;-72
2021/10/14 10:37:21;;;;;;;14.47;12.40;;;;;;;13.41;100.00;101350.13;5012210;28;20719;-70
2021/10/14 10:39:55;;;;;;;12.83;11.40;;;;;;;13.38;100.00;101347.13;4994693;28;20208;-72
2021/10/14 10:42:25;;;;;;;15.03;11.47;;;;;;;13.24;100.00;101343.28;5010498;28;20208;-71
2021/10/14 10:44:51;;;;;;;13.07;11.23;;;;;;;13.49;100.00;101338.66;4994636;28;20238;-72
2021/10/14 10:47:38;;;;;;;12.57;11.13;;;;;;;13.27;100.00;101327.19;5010368;28;20213;-72
2021/10/14 10:50:05;;;;;;;12.80;11.10;;;;;;;13.66;100.00;101326.34;5010152;28;20204;-71
2021/10/14 10:52:36;;;;;;;13.07;11.67;;;;;;;13.88;100.00;101318.63;4974592;28;20221;-71
2021/10/14 10:55:13;;;;;;;13.33;11.93;;;;;;;13.96;100.00;101323.53;4975027;28;20225;-72
2021/10/14 10:57:49;;;;;;;15.30;12.47;;;;;;;14.17;100.00;101327.88;4991236;28;20721;-71
2021/10/14 11:00:17;;;;;;;15.20;13.23;;;;;;;14.19;100.00;101317.47;4990001;28;20209;-73
2021/10/14 11:02:43;;;;;;;16.23;13.60;;;;;;;14.20;100.00;101321.84;4961042;28;20204;-72
2021/10/14 11:05:09;;;;;;;15.63;13.37;;;;;;;14.04;100.00;101312.06;4990578;28;20174;-72
2021/10/14 11:07:34;;;;;;;16.00;13.60;;;;;;;14.17;100.00;101311.47;4970670;28;20174;-72
2021/10/14 11:10:00;;;;;;;15.60;13.97;;;;;;;13.97;100.00;101306.03;4974020;28;20210;-73
2021/10/14 11:12:26;;;;;;;16.07;14.37;;;;;;;14.20;100.00;101305.47;4988941;28;20741;-71
2021/10/14 11:14:52;;;;;;;16.50;14.73;;;;;;;14.31;100.00;101305.94;5009692;28;20629;-71